createdAt,value
2022-10-28T00:01:32.452Z,2.63
2022-10-28T00:04:02.880Z,3.07
2022-10-28T00:06:33.938Z,2.70
2022-10-28T00:09:04.626Z,2.63
2022-10-28T00:11:36.932Z,3.10
2022-10-28T00:14:08.341Z,3.10
2022-10-28T00:16:38.659Z,2.43
2022-10-28T00:19:11.636Z,2.57
2022-10-28T00:21:43.126Z,3.23
2022-10-28T00:24:14.556Z,2.97
2022-10-28T00:26:45.902Z,2.97
2022-10-28T00:29:17.729Z,2.87
2022-10-28T00:31:47.099Z,3.30
2022-10-28T00:34:18.856Z,2.90
2022-10-28T00:36:48.958Z,2.53
2022-10-28T00:39:19.927Z,2.83
2022-10-28T00:41:52.359Z,2.87
2022-10-28T00:44:54.567Z,2.33
2022-10-28T00:47:38.451Z,2.70
2022-10-28T00:50:21.529Z,2.37
2022-10-28T00:52:56.726Z,2.50
2022-10-28T00:55:27.216Z,2.20
2022-10-28T00:58:00.200Z,2.83
2022-10-28T01:00:29.249Z,2.60
2022-10-28T01:02:58.651Z,2.40
2022-10-28T01:05:32.559Z,2.20
2022-10-28T01:08:03.289Z,2.70
2022-10-28T01:10:58.189Z,1.97
2022-10-28T01:13:45.663Z,2.20
2022-10-28T01:16:30.583Z,2.27
2022-10-28T01:19:28.484Z,2.53
2022-10-28T01:22:17.549Z,2.20
2022-10-28T01:25:17.300Z,2.37
2022-10-28T01:28:10.344Z,2.43
2022-10-28T01:31:16.377Z,2.70
2022-10-28T01:33:54.742Z,2.30
2022-10-28T01:36:37.686Z,2.07
2022-10-28T01:39:24.622Z,2.43
2022-10-28T01:42:03.450Z,2.47
2022-10-28T01:47:32.869Z,2.30
2022-10-28T01:50:09.138Z,2.53
2022-10-28T01:52:41.351Z,2.10
2022-10-28T01:55:17.508Z,2.17
2022-10-28T01:57:48.548Z,2.20
2022-10-28T02:00:17.860Z,2.20
2022-10-28T02:02:51.139Z,2.83
2022-10-28T02:05:42.580Z,2.30
2022-10-28T02:08:46.085Z,2.57
2022-10-28T02:11:35.731Z,2.40
2022-10-28T02:14:22.312Z,2.40
2022-10-28T02:16:58.577Z,2.40
2022-10-28T02:19:39.422Z,2.37
2022-10-28T02:22:22.184Z,2.60
2022-10-28T02:25:05.512Z,2.50
2022-10-28T02:27:44.595Z,2.67
2022-10-28T02:30:16.766Z,2.73
2022-10-28T02:32:51.247Z,2.37
2022-10-28T02:35:32.397Z,2.00
2022-10-28T02:38:07.587Z,2.20
2022-10-28T02:40:39.080Z,2.70
2022-10-28T02:43:12.666Z,2.53
2022-10-28T02:45:46.658Z,2.70
2022-10-28T02:48:23.677Z,2.33
2022-10-28T02:51:01.923Z,3.50
2022-10-28T02:53:38.177Z,2.77
2022-10-28T02:56:10.995Z,2.47
2022-10-28T02:58:41.080Z,2.70
2022-10-28T03:01:10.287Z,2.40
2022-10-28T03:03:38.524Z,2.93
2022-10-28T03:06:08.599Z,2.77
2022-10-28T03:08:36.688Z,2.50
2022-10-28T03:11:05.619Z,3.00
2022-10-28T03:13:33.774Z,2.60
2022-10-28T03:16:02.470Z,2.90
2022-10-28T03:18:30.608Z,2.90
2022-10-28T03:20:59.236Z,2.20
2022-10-28T03:23:29.240Z,2.07
2022-10-28T03:25:57.371Z,2.33
2022-10-28T03:28:25.930Z,2.43
2022-10-28T03:30:54.200Z,2.40
2022-10-28T03:33:23.019Z,2.10
2022-10-28T03:35:51.114Z,2.80
2022-10-28T03:38:19.648Z,2.50
2022-10-28T03:40:51.011Z,2.10
2022-10-28T03:43:20.280Z,2.67
2022-10-28T03:45:49.216Z,2.97
2022-10-28T03:48:18.082Z,2.77
2022-10-28T03:50:46.731Z,2.37
2022-10-28T03:53:15.087Z,3.00
2022-10-28T03:55:43.584Z,2.80
2022-10-28T03:58:13.161Z,2.57
2022-10-28T04:00:41.447Z,2.70
2022-10-28T04:03:09.535Z,2.93
2022-10-28T04:05:38.572Z,2.70
2022-10-28T04:08:06.800Z,2.90
2022-10-28T04:10:35.226Z,3.00
2022-10-28T04:13:06.069Z,2.53
2022-10-28T04:15:36.412Z,2.60
2022-10-28T04:18:05.199Z,2.87
2022-10-28T04:20:34.025Z,2.33
2022-10-28T04:23:03.297Z,3.20
2022-10-28T04:25:31.684Z,2.83
2022-10-28T04:27:59.931Z,2.70
2022-10-28T04:30:28.087Z,2.60
2022-10-28T04:32:58.397Z,2.70
2022-10-28T04:35:27.728Z,3.03
2022-10-28T04:37:56.042Z,3.10
2022-10-28T04:40:24.639Z,3.50
2022-10-28T04:42:52.963Z,2.70
2022-10-28T04:45:21.378Z,3.50
2022-10-28T04:47:49.462Z,3.40
2022-10-28T04:50:19.481Z,3.90
2022-10-28T04:52:47.632Z,2.80
2022-10-28T04:55:15.954Z,2.53
2022-10-28T04:57:44.392Z,3.27
2022-10-28T05:00:14.334Z,3.60
2022-10-28T05:02:46.007Z,3.13
2022-10-28T05:05:14.628Z,3.20
2022-10-28T05:07:44.777Z,3.67
2022-10-28T05:10:15.537Z,2.40
2022-10-28T05:12:44.990Z,4.10
2022-10-28T05:15:16.010Z,3.40
2022-10-28T05:17:46.689Z,4.77
2022-10-28T05:20:18.767Z,4.63
2022-10-28T05:22:50.533Z,3.90
2022-10-28T05:25:19.359Z,3.23
2022-10-28T05:27:47.884Z,3.73
2022-10-28T05:30:16.932Z,4.90
2022-10-28T05:32:45.395Z,3.13
2022-10-28T05:35:14.380Z,3.50
2022-10-28T05:37:42.532Z,3.30
2022-10-28T05:40:14.234Z,3.33
2022-10-28T05:42:43.407Z,2.87
2022-10-28T05:45:13.505Z,4.97
2022-10-28T05:47:45.131Z,3.70
2022-10-28T05:50:15.453Z,5.87
2022-10-28T05:52:48.045Z,4.67
2022-10-28T05:55:19.737Z,4.27
2022-10-28T05:57:48.299Z,5.00
2022-10-28T06:00:18.484Z,3.67
2022-10-28T06:05:40.240Z,3.33
2022-10-28T06:08:09.563Z,3.60
2022-10-28T06:10:39.444Z,3.00
2022-10-28T06:13:08.256Z,3.00
2022-10-28T06:15:36.381Z,3.93
2022-10-28T06:18:05.101Z,4.10
2022-10-28T06:20:33.843Z,4.27
2022-10-28T06:23:02.063Z,4.63
2022-10-28T06:25:30.431Z,3.70
2022-10-28T06:28:01.005Z,4.00
2022-10-28T06:30:30.130Z,5.77
2022-10-28T06:32:58.291Z,4.60
2022-10-28T06:35:26.492Z,4.93
2022-10-28T06:37:56.386Z,5.87
2022-10-28T06:40:26.566Z,5.47
2022-10-28T06:43:00.758Z,7.40
2022-10-28T06:45:29.468Z,3.87
2022-10-28T06:48:01.463Z,6.87
2022-10-28T06:50:31.658Z,8.97
2022-10-28T06:53:00.168Z,8.10
2022-10-28T06:55:30.084Z,4.20
2022-10-28T06:58:03.446Z,4.40
2022-10-28T07:00:33.652Z,4.13
2022-10-28T07:03:02.471Z,4.07
2022-10-28T07:05:30.984Z,6.17
2022-10-28T07:07:59.753Z,6.10
2022-10-28T07:10:27.858Z,4.70
2022-10-28T07:12:56.869Z,3.50
2022-10-28T07:15:26.830Z,5.17
2022-10-28T07:17:56.175Z,3.80
2022-10-28T07:20:27.402Z,3.67
2022-10-28T07:22:59.183Z,9.60
2022-10-28T07:25:28.596Z,4.27
2022-10-28T07:27:58.588Z,5.40
2022-10-28T07:30:29.206Z,4.67
2022-10-28T07:33:01.312Z,4.20
2022-10-28T07:35:30.566Z,4.00
2022-10-28T07:37:59.341Z,5.57
2022-10-28T07:40:28.479Z,3.83
2022-10-28T07:42:56.983Z,3.20
2022-10-28T07:45:26.901Z,2.93
2022-10-28T07:47:55.016Z,3.60
2022-10-28T07:50:23.253Z,3.57
2022-10-28T07:52:53.005Z,5.90
2022-10-28T07:55:21.972Z,3.43
2022-10-28T07:57:50.318Z,2.80
2022-10-28T08:00:18.729Z,3.43
2022-10-28T08:02:48.217Z,3.47
2022-10-28T08:05:16.642Z,4.83
2022-10-28T08:07:44.777Z,4.50
2022-10-28T08:10:13.105Z,2.93
2022-10-28T08:12:41.612Z,4.37
2022-10-28T08:15:11.016Z,5.87
2022-10-28T08:17:40.340Z,4.50
2022-10-28T08:20:10.714Z,4.80
2022-10-28T08:22:39.564Z,3.50
2022-10-28T08:25:08.379Z,5.67
2022-10-28T08:27:36.498Z,4.93
2022-10-28T08:30:06.101Z,5.37
2022-10-28T08:32:34.527Z,5.73
2022-10-28T08:35:03.040Z,4.25
2022-10-28T08:37:32.626Z,5.13
2022-10-28T08:40:00.705Z,4.77
2022-10-28T08:42:41.618Z,4.97
2022-10-28T08:45:32.535Z,4.70
2022-10-28T08:48:16.690Z,4.35
2022-10-28T08:50:53.021Z,5.80
2022-10-28T08:53:29.717Z,7.25
2022-10-28T08:56:10.480Z,6.72
2022-10-28T08:58:40.618Z,5.47
2022-10-28T09:01:18.260Z,4.20
2022-10-28T09:03:51.970Z,4.30
2022-10-28T09:06:20.225Z,3.60
2022-10-28T09:08:52.958Z,3.80
2022-10-28T09:11:45.837Z,4.00
2022-10-28T09:14:32.113Z,4.30
2022-10-28T09:17:18.922Z,3.90
2022-10-28T09:19:52.531Z,4.18
2022-10-28T09:22:26.555Z,4.55
2022-10-28T09:25:02.485Z,4.93
2022-10-28T09:27:54.414Z,4.25
2022-10-28T09:30:32.162Z,4.68
2022-10-28T09:33:19.528Z,10.70
2022-10-28T09:35:49.899Z,5.25
2022-10-28T09:38:29.239Z,14.75
2022-10-28T09:41:05.388Z,7.53
2022-10-28T09:43:36.198Z,11.60
2022-10-28T09:46:13.359Z,6.82
2022-10-28T09:48:47.743Z,7.03
2022-10-28T09:51:29.764Z,6.68
2022-10-28T09:54:00.734Z,4.20
2022-10-28T09:56:31.482Z,3.95
2022-10-28T09:59:03.738Z,5.32
2022-10-28T10:01:35.730Z,4.43
2022-10-28T10:04:18.015Z,3.60
2022-10-28T10:06:50.377Z,3.80
2022-10-28T10:09:26.569Z,3.40
2022-10-28T10:12:01.907Z,3.95
2022-10-28T10:14:37.923Z,3.75
2022-10-28T10:17:13.726Z,3.67
2022-10-28T10:20:08.485Z,10.23
2022-10-28T10:22:39.581Z,6.57
2022-10-28T10:25:31.199Z,6.68
2022-10-28T10:28:06.497Z,8.55
2022-10-28T10:30:41.132Z,6.60
2022-10-28T10:33:22.366Z,3.80
2022-10-28T10:36:00.220Z,5.28
2022-10-28T10:38:30.210Z,6.97
2022-10-28T10:40:59.229Z,3.78
2022-10-28T10:43:35.262Z,4.53
2022-10-28T10:46:07.135Z,10.38
2022-10-28T10:48:37.112Z,4.88
2022-10-28T10:51:16.963Z,4.40
2022-10-28T10:53:51.587Z,4.68
2022-10-28T10:56:28.571Z,3.80
2022-10-28T10:59:03.935Z,3.35
2022-10-28T11:01:38.099Z,4.20
2022-10-28T11:04:08.766Z,4.97
2022-10-28T11:06:43.411Z,3.97
2022-10-28T11:09:24.047Z,4.82
2022-10-28T11:11:55.816Z,3.85
2022-10-28T11:14:29.594Z,3.80
2022-10-28T11:17:00.367Z,4.22
2022-10-28T11:19:32.784Z,3.50
2022-10-28T11:22:25.806Z,5.30
2022-10-28T11:25:34.222Z,4.38
2022-10-28T11:28:36.315Z,5.10
2022-10-28T11:31:32.366Z,3.70
2022-10-28T11:34:20.204Z,7.40
2022-10-28T11:37:01.704Z,5.38
2022-10-28T11:39:38.363Z,5.35
2022-10-28T11:42:27.493Z,5.90
2022-10-28T11:45:04.500Z,5.45
2022-10-28T11:48:00.763Z,5.25
2022-10-28T11:50:59.513Z,4.63
2022-10-28T11:54:24.142Z,4.25
2022-10-28T11:57:00.225Z,4.50
2022-10-28T12:00:13.794Z,3.38
2022-10-28T12:03:05.900Z,3.22
2022-10-28T12:05:43.317Z,3.03
2022-10-28T12:08:47.084Z,5.50
2022-10-28T12:11:33.500Z,2.92
2022-10-28T12:14:18.084Z,3.33
2022-10-28T12:16:58.391Z,4.43
2022-10-28T12:19:33.130Z,7.35
2022-10-28T12:22:12.408Z,4.07
2022-10-28T12:24:45.474Z,5.75
2022-10-28T12:27:20.722Z,3.92
2022-10-28T14:31:44.562Z,4.57
2022-10-28T14:34:42.422Z,5.10
2022-10-28T14:38:13.575Z,6.25
2022-10-28T14:40:50.791Z,4.72
2022-10-28T14:44:03.363Z,3.85
2022-10-28T14:46:51.643Z,5.43
2022-10-28T14:49:26.935Z,4.95
2022-10-28T14:51:57.780Z,4.25
2022-10-28T14:54:39.831Z,4.03
2022-10-28T14:57:10.296Z,5.07
2022-10-28T14:59:44.730Z,5.15
2022-10-28T15:02:17.683Z,5.68
2022-10-28T15:04:48.437Z,5.53
2022-10-28T15:07:20.422Z,4.85
2022-10-28T15:09:53.436Z,6.40
2022-10-28T15:12:26.836Z,5.68
2022-10-28T15:14:58.211Z,8.27
2022-10-28T15:17:29.109Z,7.45
2022-10-28T15:20:01.376Z,7.03
2022-10-28T15:22:33.185Z,5.70
2022-10-28T15:25:04.498Z,6.68
2022-10-28T15:27:36.218Z,6.63
2022-10-28T15:30:14.146Z,5.28
2022-10-28T15:32:43.313Z,5.25
2022-10-28T15:35:40.522Z,6.38
2022-10-28T15:38:39.192Z,8.02
2022-10-28T15:41:43.431Z,7.22
2022-10-28T15:44:33.041Z,7.43
2022-10-28T15:47:19.797Z,7.95
2022-10-28T15:50:01.688Z,14.93
2022-10-28T15:52:42.352Z,11.35
2022-10-28T15:56:02.442Z,8.82
2022-10-28T15:58:41.372Z,7.05
2022-10-28T16:01:28.346Z,6.68
2022-10-28T16:03:58.662Z,6.70
2022-10-28T16:06:31.616Z,7.05
2022-10-28T16:09:18.833Z,6.57
2022-10-28T16:11:51.070Z,8.13
2022-10-28T16:14:38.201Z,6.95
2022-10-28T16:17:17.683Z,12.18
2022-10-28T16:19:55.016Z,14.77
2022-10-28T16:22:26.960Z,11.77
2022-10-28T16:24:56.463Z,9.32
2022-10-28T16:27:27.549Z,21.80
2022-10-28T16:29:56.527Z,12.15
2022-10-28T16:32:30.106Z,9.30
2022-10-28T16:35:01.390Z,6.57
2022-10-28T16:37:32.993Z,5.90
2022-10-28T16:40:01.135Z,5.47
2022-10-28T16:42:29.604Z,6.75
2022-10-28T16:44:58.132Z,5.28
2022-10-28T16:47:27.491Z,5.22
2022-10-28T16:49:57.384Z,6.32
2022-10-28T16:52:32.022Z,4.97
2022-10-28T16:55:00.344Z,4.82
2022-10-28T16:57:29.101Z,3.90
2022-10-28T16:59:57.953Z,4.40
2022-10-28T17:02:30.977Z,4.70
2022-10-28T17:05:01.328Z,4.93
2022-10-28T17:07:30.834Z,6.18
2022-10-28T17:09:59.261Z,4.85
2022-10-28T17:12:29.181Z,4.43
2022-10-28T17:14:57.314Z,4.40
2022-10-28T17:17:25.942Z,4.72
2022-10-28T17:19:54.208Z,5.80
2022-10-28T17:22:23.962Z,5.57
2022-10-28T17:24:54.506Z,5.30
2022-10-28T17:27:23.680Z,4.75
2022-10-28T17:29:52.081Z,5.13
2022-10-28T17:32:20.636Z,6.40
2022-10-28T17:34:48.809Z,5.55
2022-10-28T17:37:17.771Z,5.80
2022-10-28T17:39:46.344Z,6.45
2022-10-28T17:42:15.912Z,5.63
2022-10-28T17:44:44.646Z,18.33
2022-10-28T17:47:13.203Z,10.43
2022-10-28T17:49:42.081Z,9.55
2022-10-28T17:52:10.479Z,7.90
2022-10-28T17:54:39.200Z,7.57
2022-10-28T17:57:07.507Z,6.00
2022-10-28T17:59:37.392Z,5.15
2022-10-28T18:02:05.956Z,5.50
2022-10-28T18:04:35.207Z,4.68
2022-10-28T18:07:03.285Z,6.60
2022-10-28T18:09:32.870Z,7.03
2022-10-28T18:12:03.077Z,7.63
2022-10-28T18:14:31.806Z,6.47
2022-10-28T18:17:01.635Z,5.95
2022-10-28T18:19:30.018Z,5.17
2022-10-28T18:21:58.525Z,5.32
2022-10-28T18:24:26.630Z,5.25
2022-10-28T18:26:57.119Z,6.35
2022-10-28T18:29:25.624Z,5.65
2022-10-28T18:31:54.274Z,5.07
2022-10-28T18:34:24.782Z,5.23
2022-10-28T18:36:53.920Z,5.10
2022-10-28T18:39:22.050Z,5.90
2022-10-28T18:41:51.794Z,4.97
2022-10-28T18:44:24.549Z,4.03
2022-10-28T18:46:53.240Z,3.93
2022-10-28T18:49:22.959Z,5.27
2022-10-28T18:51:51.156Z,4.50
2022-10-28T18:54:19.642Z,4.43
2022-10-28T18:56:49.182Z,5.10
2022-10-28T18:59:18.799Z,4.23
2022-10-28T19:01:48.595Z,4.27
2022-10-28T19:04:17.290Z,4.43
2022-10-28T19:06:47.117Z,4.23
2022-10-28T19:09:16.121Z,5.50
2022-10-28T19:11:44.222Z,5.60
2022-10-28T19:14:12.663Z,4.97
2022-10-28T19:16:40.790Z,6.28
2022-10-28T19:19:09.483Z,5.28
2022-10-28T19:21:37.615Z,5.60
2022-10-28T19:24:08.016Z,5.85
2022-10-28T19:26:36.283Z,5.15
2022-10-28T19:29:06.075Z,4.65
2022-10-28T19:31:38.984Z,5.60
2022-10-28T19:34:07.162Z,5.17
2022-10-28T19:36:35.701Z,3.83
2022-10-28T19:39:05.942Z,5.13
2022-10-28T19:41:34.500Z,4.65
2022-10-28T21:50:59.047Z,3.13
2022-10-28T21:53:33.142Z,3.93
2022-10-28T21:56:06.267Z,3.87
2022-10-28T21:58:37.463Z,3.63
2022-10-28T22:01:07.561Z,4.00
2022-10-28T22:03:36.083Z,3.80
2022-10-28T22:06:04.767Z,3.60
2022-10-28T22:08:35.137Z,4.13
2022-10-28T22:11:06.478Z,4.00
2022-10-28T22:13:36.065Z,4.13
2022-10-28T22:16:07.817Z,4.20
2022-10-28T22:18:38.430Z,3.70
2022-10-28T22:21:08.776Z,3.67
2022-10-28T22:23:38.801Z,3.10
2022-10-28T22:26:10.009Z,3.93
2022-10-28T22:28:38.592Z,4.40
2022-10-28T22:31:09.766Z,4.60
2022-10-28T22:33:38.783Z,3.80
2022-10-28T22:36:10.071Z,3.93
2022-10-28T22:38:40.168Z,4.40
2022-10-28T22:41:13.632Z,4.53
2022-10-28T22:43:43.147Z,3.93
2022-10-28T22:46:13.211Z,3.90
2022-10-28T22:48:42.069Z,3.60
2022-10-28T22:51:12.180Z,4.10
2022-10-28T22:53:43.759Z,3.70
2022-10-28T22:56:16.717Z,3.40
2022-10-28T22:58:45.047Z,3.50
2022-10-28T23:01:16.796Z,3.43
2022-10-28T23:03:47.438Z,3.10
2022-10-28T23:06:18.726Z,3.00
2022-10-28T23:08:49.629Z,3.37
2022-10-28T23:11:20.723Z,3.40
2022-10-28T23:13:53.427Z,3.10
2022-10-28T23:16:22.463Z,3.93
2022-10-28T23:18:52.840Z,2.87
2022-10-28T23:21:23.480Z,2.97
2022-10-28T23:23:55.966Z,3.27
2022-10-28T23:26:25.793Z,3.30
2022-10-28T23:28:56.645Z,3.10
2022-10-28T23:31:26.243Z,3.70
2022-10-28T23:33:56.089Z,3.43
2022-10-28T23:36:24.595Z,3.37
2022-10-28T23:38:54.672Z,3.30
2022-10-28T23:41:22.763Z,2.90
2022-10-28T23:43:51.210Z,3.20
2022-10-28T23:46:20.396Z,3.37
2022-10-28T23:48:49.241Z,3.63
2022-10-28T23:51:19.264Z,3.47
2022-10-28T23:53:47.539Z,3.47
2022-10-28T23:56:17.658Z,2.93
2022-10-28T23:58:45.844Z,3.10
